createdAt,value
2022-08-07T00:02:37.155Z,15.87
2022-08-07T00:04:11.099Z,15.86
2022-08-07T00:06:12.928Z,15.90
2022-08-07T00:08:14.657Z,15.87
2022-08-07T00:10:25.968Z,15.81
2022-08-07T00:12:28.926Z,15.76
2022-08-07T00:14:31.367Z,15.70
2022-08-07T00:16:34.559Z,15.70
2022-08-07T00:18:37.120Z,15.61
2022-08-07T00:20:39.465Z,15.55
2022-08-07T00:22:42.333Z,15.59
2022-08-07T00:24:53.365Z,15.63
2022-08-07T00:27:06.731Z,15.57
2022-08-07T00:29:09.340Z,15.60
2022-08-07T00:31:12.604Z,15.56
2022-08-07T00:33:19.245Z,15.43
2022-08-07T00:35:23.222Z,15.45
2022-08-07T00:37:24.785Z,15.38
2022-08-07T00:39:31.053Z,15.35
2022-08-07T00:41:33.694Z,15.40
2022-08-07T00:44:01.617Z,15.41
2022-08-07T00:46:04.206Z,15.42
2022-08-07T00:48:11.331Z,15.25
2022-08-07T00:50:20.849Z,15.15
2022-08-07T00:52:36.695Z,15.10
2022-08-07T00:54:40.671Z,15.07
2022-08-07T00:56:42.398Z,15.11
2022-08-07T00:58:49.862Z,15.14
2022-08-07T01:00:53.479Z,15.11
2022-08-07T01:02:55.814Z,15.14
2022-08-07T01:05:00.257Z,14.99
2022-08-07T01:07:03.999Z,15.02
2022-08-07T01:09:05.519Z,14.95
2022-08-07T01:11:23.656Z,14.94
2022-08-07T01:13:35.284Z,14.91
2022-08-07T01:16:05.402Z,15.02
2022-08-07T01:17:59.057Z,14.97
2022-08-07T01:20:04.826Z,14.98
2022-08-07T01:22:08.660Z,14.98
2022-08-07T01:24:11.099Z,14.88
2022-08-07T01:26:16.669Z,14.85
2022-08-07T01:28:18.376Z,14.73
2022-08-07T01:30:20.041Z,14.63
2022-08-07T01:32:28.981Z,14.56
2022-08-07T01:34:31.650Z,14.53
2022-08-07T01:36:36.442Z,14.62
2022-08-07T01:38:44.007Z,14.60
2022-08-07T01:40:47.786Z,14.56
2022-08-07T01:42:56.929Z,14.42
2022-08-07T01:44:59.673Z,14.47
2022-08-07T01:48:17.519Z,14.44
2022-08-07T01:49:23.430Z,14.38
2022-08-07T01:52:03.079Z,14.44
2022-08-07T01:54:09.365Z,14.40
2022-08-07T01:56:17.324Z,14.39
2022-08-07T01:58:27.766Z,14.39
2022-08-07T02:00:32.693Z,14.45
2022-08-07T02:03:15.952Z,14.40
2022-08-07T02:05:06.078Z,14.34
2022-08-07T02:07:10.194Z,14.38
2022-08-07T02:09:52.402Z,14.43
2022-08-07T02:12:04.170Z,14.29
2022-08-07T02:14:07.550Z,14.24
2022-08-07T02:16:11.809Z,14.15
2022-08-07T02:18:15.247Z,14.06
2022-08-07T02:20:23.922Z,14.04
2022-08-07T02:22:27.999Z,14.05
2022-08-07T02:24:31.631Z,14.14
2022-08-07T02:26:35.795Z,14.25
2022-08-07T02:28:39.519Z,14.23
2022-08-07T02:30:44.147Z,14.24
2022-08-07T02:33:03.999Z,14.30
2022-08-07T02:35:11.003Z,14.33
2022-08-07T02:37:14.430Z,14.45
2022-08-07T02:39:43.477Z,14.40
2022-08-07T02:41:40.613Z,14.39
2022-08-07T02:43:50.012Z,14.44
2022-08-07T02:46:00.826Z,14.41
2022-08-07T02:48:04.465Z,14.44
2022-08-07T02:50:12.069Z,14.37
2022-08-07T02:52:21.404Z,14.24
2022-08-07T02:54:25.892Z,14.26
2022-08-07T02:56:31.606Z,14.30
2022-08-07T02:58:36.661Z,14.25
2022-08-07T03:00:47.380Z,14.16
2022-08-07T03:02:54.389Z,14.07
2022-08-07T03:04:57.725Z,14.05
2022-08-07T03:07:07.088Z,14.07
2022-08-07T03:09:12.533Z,14.11
2022-08-07T03:11:14.952Z,14.05
2022-08-07T03:13:19.634Z,13.96
2022-08-07T03:15:30.235Z,13.94
2022-08-07T03:17:53.471Z,14.02
2022-08-07T03:19:56.620Z,13.92
2022-08-07T03:21:58.880Z,13.93
2022-08-07T03:24:20.859Z,13.79
2022-08-07T03:26:25.827Z,13.80
2022-08-07T03:28:38.418Z,13.79
2022-08-07T03:30:44.909Z,13.89
2022-08-07T03:32:49.127Z,13.87
2022-08-07T03:35:17.581Z,13.82
2022-08-07T03:37:21.621Z,13.79
2022-08-07T03:39:59.350Z,13.79
2022-08-07T03:41:54.942Z,13.97
2022-08-07T03:43:57.744Z,13.96
2022-08-07T03:46:02.765Z,13.92
2022-08-07T03:48:04.999Z,13.92
2022-08-07T03:50:12.182Z,13.97
2022-08-07T03:52:22.932Z,14.01
2022-08-07T03:54:35.546Z,14.04
2022-08-07T03:56:40.188Z,13.94
2022-08-07T03:59:08.102Z,13.88
2022-08-07T04:01:14.483Z,13.87
2022-08-07T04:03:16.866Z,13.94
2022-08-07T04:05:20.757Z,14.00
2022-08-07T04:07:36.258Z,14.07
2022-08-07T04:09:50.313Z,14.17
2022-08-07T04:12:25.275Z,14.10
2022-08-07T04:14:37.518Z,14.17
2022-08-07T04:16:38.420Z,14.19
2022-08-07T04:18:59.465Z,14.27
2022-08-07T04:21:03.932Z,14.35
2022-08-07T04:23:10.302Z,14.47
2022-08-07T04:25:23.590Z,14.51
2022-08-07T04:27:26.442Z,14.64
2022-08-07T04:29:30.385Z,14.79
2022-08-07T04:32:10.118Z,15.02
2022-08-07T04:34:06.638Z,15.18
2022-08-07T04:36:22.898Z,15.13
2022-08-07T04:38:28.344Z,15.18
2022-08-07T04:40:32.361Z,15.19
2022-08-07T04:42:34.055Z,15.11
2022-08-07T04:44:37.313Z,15.22
2022-08-07T04:47:08.143Z,15.42
2022-08-07T04:49:17.471Z,16.03
2022-08-07T04:51:27.058Z,17.00
2022-08-07T04:54:01.124Z,17.90
2022-08-07T04:58:09.386Z,18.97
2022-08-07T04:59:15.823Z,19.35
2022-08-07T05:01:06.863Z,19.13
2022-08-07T05:04:06.760Z,19.07
2022-08-07T05:05:53.497Z,18.68
2022-08-07T05:08:02.928Z,18.29
2022-08-07T05:10:10.147Z,18.15
2022-08-07T05:12:27.208Z,17.88
2022-08-07T05:14:56.351Z,17.92
2022-08-07T05:17:02.237Z,17.86
2022-08-07T05:19:14.055Z,18.05
2022-08-07T05:21:59.261Z,18.25
2022-08-07T05:23:47.534Z,18.36
2022-08-07T05:26:10.407Z,18.52
2022-08-07T05:28:20.811Z,18.68
2022-08-07T05:30:32.853Z,18.79
2022-08-07T05:32:35.850Z,19.02
2022-08-07T05:34:41.004Z,19.11
2022-08-07T05:36:48.987Z,19.39
2022-08-07T05:38:59.484Z,19.52
2022-08-07T05:41:05.465Z,19.50
2022-08-07T05:43:14.805Z,19.73
2022-08-07T05:45:46.204Z,19.86
2022-08-07T05:48:02.191Z,20.15
2022-08-07T05:50:04.219Z,20.13
2022-08-07T05:52:07.701Z,20.19
2022-08-07T05:54:31.466Z,20.04
2022-08-07T05:56:36.375Z,20.03
2022-08-07T05:58:39.211Z,20.31
2022-08-07T06:00:42.016Z,20.33
2022-08-07T06:02:50.258Z,20.33
2022-08-07T06:04:56.900Z,20.42
2022-08-07T06:07:03.626Z,20.44
2022-08-07T06:09:06.487Z,20.56
2022-08-07T06:11:09.153Z,20.81
2022-08-07T06:13:13.458Z,21.00
2022-08-07T06:15:19.930Z,21.07
2022-08-07T06:17:22.963Z,21.14
2022-08-07T06:19:51.877Z,21.15
2022-08-07T06:22:14.891Z,21.27
2022-08-07T06:24:45.919Z,21.44
2022-08-07T06:26:42.159Z,21.64
2022-08-07T06:28:48.779Z,21.46
2022-08-07T06:30:53.161Z,21.48
2022-08-07T06:32:54.747Z,21.69
2022-08-07T06:34:56.288Z,21.63
2022-08-07T06:36:57.843Z,21.63
2022-08-07T06:40:16.703Z,21.47
2022-08-07T06:41:29.426Z,21.53
2022-08-07T06:43:59.534Z,21.43
2022-08-07T06:46:12.252Z,21.37
2022-08-07T06:48:14.060Z,21.33
2022-08-07T06:50:19.086Z,21.30
2022-08-07T06:52:31.272Z,21.24
2022-08-07T06:55:33.881Z,21.02
2022-08-07T06:57:02.491Z,20.88
2022-08-07T07:00:13.438Z,20.66
2022-08-07T07:01:41.804Z,20.49
2022-08-07T07:03:49.987Z,20.58
2022-08-07T07:06:05.137Z,20.66
2022-08-07T07:08:12.371Z,20.69
2022-08-07T07:10:27.807Z,20.94
2022-08-07T07:12:48.968Z,20.99
2022-08-07T07:14:57.948Z,21.07
2022-08-07T07:17:03.101Z,21.19
2022-08-07T07:19:54.370Z,21.32
2022-08-07T07:21:40.204Z,21.41
2022-08-07T07:24:10.184Z,21.37
2022-08-07T07:26:34.514Z,21.50
2022-08-07T07:29:23.676Z,21.69
2022-08-07T07:31:08.420Z,21.66
2022-08-07T07:33:12.548Z,21.85
2022-08-07T07:35:16.591Z,21.91
2022-08-07T07:37:21.916Z,22.00
2022-08-07T07:39:52.161Z,22.08
2022-08-07T07:42:13.759Z,22.22
2022-08-07T07:44:26.518Z,22.15
2022-08-07T07:46:36.666Z,22.33
2022-08-07T07:49:08.793Z,22.53
2022-08-07T07:51:12.521Z,22.57
2022-08-07T07:53:25.656Z,22.73
2022-08-07T07:55:37.569Z,22.90
2022-08-07T07:57:52.907Z,22.82
2022-08-07T07:59:58.365Z,22.58
2022-08-07T08:02:10.291Z,22.61
2022-08-07T08:04:13.855Z,22.84
2022-08-07T08:06:17.894Z,22.86
2022-08-07T08:08:34.549Z,22.87
2022-08-07T08:10:39.372Z,23.03
2022-08-07T08:12:52.262Z,22.93
2022-08-07T08:15:01.940Z,22.52
2022-08-07T08:17:56.093Z,22.56
2022-08-07T08:20:18.529Z,22.46
2022-08-07T08:22:03.024Z,22.53
2022-08-07T08:24:06.920Z,22.70
2022-08-07T08:26:28.559Z,22.76
2022-08-07T08:28:38.703Z,22.83
2022-08-07T08:30:51.429Z,22.55
2022-08-07T08:32:59.961Z,22.09
2022-08-07T08:35:03.497Z,22.23
2022-08-07T08:37:09.791Z,22.69
2022-08-07T08:39:39.883Z,22.44
2022-08-07T08:41:59.422Z,22.64
2022-08-07T08:44:08.409Z,22.85
2022-08-07T08:46:21.982Z,22.90
2022-08-07T08:48:32.643Z,22.70
2022-08-07T08:50:40.461Z,23.07
2022-08-07T08:52:54.225Z,23.33
2022-08-07T08:55:07.536Z,23.54
2022-08-07T08:57:18.935Z,23.53
2022-08-07T08:59:29.118Z,23.18
2022-08-07T09:01:46.444Z,23.48
2022-08-07T09:03:59.527Z,23.63
2022-08-07T09:06:08.009Z,23.87
2022-08-07T09:08:28.102Z,24.07
2022-08-07T09:10:38.226Z,24.17
2022-08-07T09:12:54.217Z,24.14
2022-08-07T09:16:20.054Z,23.71
2022-08-07T09:17:59.060Z,23.30
2022-08-07T09:20:34.652Z,23.46
2022-08-07T09:24:32.557Z,23.93
2022-08-07T09:25:17.505Z,23.75
2022-08-07T09:27:28.985Z,23.60
2022-08-07T09:30:03.930Z,23.68
2022-08-07T09:32:18.643Z,23.79
2022-08-07T09:34:27.525Z,24.29
2022-08-07T09:36:35.612Z,24.38
2022-08-07T09:38:50.299Z,24.61
2022-08-07T09:41:04.610Z,24.79
2022-08-07T09:43:19.436Z,24.92
2022-08-07T09:47:24.103Z,24.90
2022-08-07T09:48:25.117Z,25.07
2022-08-07T09:50:44.923Z,25.21
2022-08-07T09:52:53.801Z,25.09
2022-08-07T09:54:59.053Z,25.39
2022-08-07T09:57:21.758Z,25.72
2022-08-07T09:59:46.723Z,25.68
2022-08-07T10:02:29.530Z,25.38
2022-08-07T10:05:00.292Z,25.24
2022-08-07T10:07:25.751Z,25.31
2022-08-07T10:10:00.157Z,25.44
2022-08-07T10:12:19.729Z,25.28
2022-08-07T10:14:41.500Z,25.19
2022-08-07T10:17:03.482Z,25.53
2022-08-07T10:19:30.175Z,25.53
2022-08-07T10:22:12.388Z,25.30
2022-08-07T10:24:30.032Z,25.43
2022-08-07T10:26:52.972Z,25.20
2022-08-07T10:29:07.522Z,25.27
2022-08-07T10:31:31.510Z,25.17
2022-08-07T10:34:17.864Z,25.56
2022-08-07T10:36:38.403Z,25.70
2022-08-07T10:38:51.538Z,25.75
2022-08-07T10:41:06.146Z,26.21
2022-08-07T10:43:15.037Z,26.47
2022-08-07T10:45:44.568Z,26.75
2022-08-07T10:48:04.908Z,26.58
2022-08-07T10:50:17.033Z,26.65
2022-08-07T10:52:31.861Z,26.71
2022-08-07T10:54:42.578Z,26.70
2022-08-07T10:57:08.450Z,26.28
2022-08-07T10:59:21.685Z,26.22
2022-08-07T11:01:51.526Z,26.21
2022-08-07T11:04:16.595Z,26.39
2022-08-07T11:06:32.040Z,26.87
2022-08-07T11:08:41.031Z,26.10
2022-08-07T11:10:49.993Z,26.62
2022-08-07T11:13:02.584Z,26.15
2022-08-07T11:15:09.569Z,25.86
2022-08-07T11:17:45.298Z,25.47
2022-08-07T11:19:52.713Z,25.11
2022-08-07T11:22:06.949Z,24.77
2022-08-07T11:24:23.956Z,24.67
2022-08-07T11:26:31.558Z,24.52
2022-08-07T11:28:40.910Z,24.07
2022-08-07T11:30:53.274Z,24.06
2022-08-07T11:33:02.396Z,24.21
2022-08-07T11:35:11.949Z,24.10
2022-08-07T11:37:38.499Z,24.00
2022-08-07T11:40:07.505Z,24.48
2022-08-07T11:42:18.554Z,24.33
2022-08-07T11:44:32.529Z,24.30
2022-08-07T11:46:53.263Z,24.11
2022-08-07T11:50:11.145Z,23.92
2022-08-07T11:52:03.770Z,23.91
2022-08-07T11:54:22.162Z,23.86
2022-08-07T11:56:45.110Z,23.48
2022-08-07T12:00:07.701Z,23.43
2022-08-07T12:02:00.119Z,23.67
2022-08-07T12:04:16.926Z,23.70
2022-08-07T12:06:39.200Z,23.94
2022-08-07T12:08:50.187Z,24.01
2022-08-07T12:11:08.177Z,24.23
2022-08-07T12:13:35.329Z,24.57
2022-08-07T12:16:05.429Z,24.97
2022-08-07T12:18:15.991Z,25.35
2022-08-07T12:20:30.381Z,25.42
2022-08-07T12:22:46.973Z,25.62
2022-08-07T12:25:07.715Z,25.89
2022-08-07T12:27:13.300Z,25.88
2022-08-07T12:29:38.090Z,25.83
2022-08-07T12:31:53.150Z,25.40
2022-08-07T12:34:11.192Z,25.04
2022-08-07T12:36:15.025Z,24.73
2022-08-07T12:38:29.396Z,24.43
2022-08-07T12:40:46.456Z,23.79
2022-08-07T12:42:55.169Z,23.59
2022-08-07T12:45:04.428Z,23.59
2022-08-07T12:47:30.428Z,23.47
2022-08-07T12:49:51.176Z,23.47
2022-08-07T12:52:13.798Z,23.61
2022-08-07T12:54:38.206Z,23.73
2022-08-07T12:56:43.277Z,23.71
2022-08-07T12:58:57.927Z,23.83
2022-08-07T13:01:08.185Z,23.73
2022-08-07T13:03:56.075Z,23.86
2022-08-07T13:06:21.727Z,23.96
2022-08-07T13:08:43.644Z,23.82
2022-08-07T13:10:58.565Z,23.70
2022-08-07T13:13:48.902Z,23.67
2022-08-07T13:15:51.139Z,23.76
2022-08-07T13:18:10.025Z,23.83
2022-08-07T13:20:39.444Z,24.17
2022-08-07T13:22:53.367Z,24.24
2022-08-07T13:25:02.372Z,24.54
2022-08-07T13:27:12.747Z,24.69
2022-08-07T13:29:20.177Z,25.05
2022-08-07T13:31:32.153Z,25.30
2022-08-07T13:34:34.442Z,25.63
2022-08-07T13:36:17.523Z,25.87
2022-08-07T13:38:29.320Z,25.77
2022-08-07T13:40:42.259Z,25.81
2022-08-07T13:42:49.430Z,26.04
2022-08-07T13:45:11.550Z,26.01
2022-08-07T13:47:15.884Z,26.14
2022-08-07T13:50:33.462Z,26.26
2022-08-07T13:52:23.016Z,26.23
2022-08-07T13:54:23.645Z,26.27
2022-08-07T13:56:35.926Z,26.27
2022-08-07T13:58:56.140Z,26.23
2022-08-07T14:01:09.194Z,26.39
2022-08-07T14:03:13.869Z,26.42
2022-08-07T14:05:38.020Z,26.51
2022-08-07T14:08:00.667Z,26.51
2022-08-07T14:10:17.864Z,26.24
2022-08-07T14:12:36.274Z,26.52
2022-08-07T14:14:48.179Z,26.60
2022-08-07T14:16:53.464Z,26.47
2022-08-07T14:18:57.590Z,26.40
2022-08-07T14:21:11.787Z,26.03
2022-08-07T14:23:31.735Z,25.97
2022-08-07T14:26:00.510Z,26.18
2022-08-07T14:28:11.358Z,26.09
2022-08-07T14:30:16.127Z,25.77
2022-08-07T14:32:40.607Z,26.05
2022-08-07T14:34:46.566Z,26.27
2022-08-07T14:36:56.374Z,26.48
2022-08-07T14:39:01.383Z,26.40
2022-08-07T14:41:14.892Z,25.93
2022-08-07T14:43:58.430Z,25.91
2022-08-07T14:48:10.426Z,25.60
2022-08-07T14:50:22.276Z,25.19
2022-08-07T14:52:27.967Z,24.92
2022-08-07T14:54:35.712Z,25.09
2022-08-07T14:56:47.728Z,25.35
2022-08-07T14:58:55.231Z,25.49
2022-08-07T15:00:59.097Z,25.49
2022-08-07T15:03:16.668Z,25.43
2022-08-07T15:07:50.861Z,25.26
2022-08-07T15:09:58.909Z,25.44
2022-08-07T15:12:09.026Z,25.50
2022-08-07T15:14:17.499Z,25.45
2022-08-07T15:18:50.276Z,25.89
2022-08-07T15:20:54.962Z,25.80
2022-08-07T15:23:00.062Z,25.73
2022-08-07T15:25:23.813Z,25.64
2022-08-07T15:28:32.881Z,25.66
2022-08-07T15:30:16.513Z,25.48
2022-08-07T15:32:39.184Z,25.39
2022-08-07T15:34:50.700Z,25.25
2022-08-07T15:37:06.555Z,25.21
2022-08-07T15:39:10.803Z,25.06
2022-08-07T15:41:23.424Z,25.01
2022-08-07T15:43:33.537Z,25.20
2022-08-07T15:45:56.545Z,25.15
2022-08-07T15:48:04.165Z,25.25
2022-08-07T15:50:12.414Z,25.15
2022-08-07T15:52:36.415Z,25.15
2022-08-07T15:54:41.010Z,25.32
2022-08-07T15:56:42.769Z,25.30
2022-08-07T15:58:52.985Z,25.28
2022-08-07T16:00:55.278Z,25.38
2022-08-07T16:02:58.750Z,25.45
2022-08-07T16:05:15.178Z,25.50
2022-08-07T16:08:33.089Z,25.61
2022-08-07T16:09:49.317Z,25.51
2022-08-07T16:12:28.664Z,25.02
2022-08-07T16:14:52.347Z,24.93
2022-08-07T16:17:15.411Z,25.16
2022-08-07T16:19:41.878Z,25.27
2022-08-07T16:22:19.268Z,25.33
2022-08-07T16:24:34.641Z,25.42
2022-08-07T16:26:59.219Z,25.36
2022-08-07T16:30:09.209Z,25.45
2022-08-07T16:31:51.957Z,25.40
2022-08-07T16:34:10.132Z,25.42
2022-08-07T16:36:31.385Z,25.40
2022-08-07T16:38:59.983Z,24.88
2022-08-07T16:41:20.780Z,24.93
2022-08-07T16:44:02.592Z,24.83
2022-08-07T16:50:20.439Z,24.08
2022-08-07T16:51:54.102Z,23.79
2022-08-07T16:54:32.981Z,23.82
2022-08-07T16:56:53.191Z,23.81
2022-08-07T16:59:15.016Z,23.75
2022-08-07T17:01:41.248Z,23.86
2022-08-07T17:03:58.581Z,23.69
2022-08-07T17:06:30.056Z,23.67
2022-08-07T17:09:04.226Z,23.66
2022-08-07T17:11:01.315Z,23.61
2022-08-07T17:13:41.081Z,23.62
2022-08-07T17:16:01.077Z,23.78
2022-08-07T17:18:27.943Z,23.65
2022-08-07T17:20:32.800Z,23.69
2022-08-07T17:22:39.141Z,23.69
2022-08-07T17:25:03.174Z,23.49
2022-08-07T17:27:09.926Z,23.50
2022-08-07T17:30:15.929Z,23.40
2022-08-07T17:32:02.849Z,23.48
2022-08-07T17:34:33.159Z,23.23
2022-08-07T17:36:58.402Z,23.11
2022-08-07T17:39:10.398Z,23.01
2022-08-07T17:42:04.257Z,23.06
2022-08-07T17:44:02.683Z,23.13
2022-08-07T17:46:12.489Z,23.07
2022-08-07T17:48:30.419Z,23.01
2022-08-07T17:50:46.966Z,22.97
2022-08-07T17:52:55.133Z,23.00
2022-08-07T17:55:07.773Z,23.00
2022-08-07T17:57:18.794Z,22.91
2022-08-07T17:59:23.909Z,22.79
2022-08-07T18:01:36.658Z,22.68
2022-08-07T18:03:54.017Z,22.62
2022-08-07T18:06:16.804Z,22.66
2022-08-07T18:08:33.987Z,22.54
2022-08-07T18:12:06.234Z,22.54
2022-08-07T18:13:15.322Z,22.68
2022-08-07T18:15:32.510Z,22.69
2022-08-07T18:18:44.595Z,22.53
2022-08-07T18:21:03.693Z,22.36
2022-08-07T18:22:35.516Z,22.27
2022-08-07T18:24:44.725Z,22.28
2022-08-07T18:27:17.415Z,22.07
2022-08-07T18:30:07.715Z,21.97
2022-08-07T18:32:00.108Z,21.85
2022-08-07T18:34:39.395Z,21.70
2022-08-07T18:36:53.946Z,21.73
2022-08-07T18:40:07.919Z,21.71
2022-08-07T18:41:54.582Z,21.54
2022-08-07T18:44:03.301Z,21.58
2022-08-07T18:46:22.373Z,21.40
2022-08-07T18:50:33.099Z,21.31
2022-08-07T18:51:08.461Z,21.23
2022-08-07T18:53:16.433Z,21.25
2022-08-07T18:55:42.645Z,21.22
2022-08-07T18:57:59.641Z,21.14
2022-08-07T19:00:33.201Z,21.13
2022-08-07T19:02:42.162Z,21.05
2022-08-07T19:05:10.646Z,21.13
2022-08-07T19:07:34.468Z,21.06
2022-08-07T19:09:57.100Z,21.06
2022-08-07T19:12:26.465Z,20.87
2022-08-07T19:16:04.877Z,20.84
2022-08-07T19:18:03.353Z,20.76
2022-08-07T19:20:29.657Z,20.77
2022-08-07T19:22:39.388Z,20.63
2022-08-07T19:24:48.099Z,20.53
2022-08-07T19:27:01.899Z,20.46
2022-08-07T19:30:57.029Z,20.39
2022-08-07T19:32:09.701Z,20.38
2022-08-07T19:34:08.254Z,20.34
2022-08-07T19:36:14.219Z,20.30
2022-08-07T19:38:32.262Z,20.41
2022-08-07T19:40:38.744Z,20.42
2022-08-07T19:42:53.419Z,20.37
2022-08-07T19:44:56.458Z,20.33
2022-08-07T19:47:05.981Z,20.31
2022-08-07T19:49:14.787Z,20.24
2022-08-07T19:51:19.882Z,20.19
2022-08-07T19:54:31.745Z,20.27
2022-08-07T19:55:57.332Z,20.18
2022-08-07T19:58:13.536Z,20.15
2022-08-07T20:00:28.261Z,19.98
2022-08-07T20:02:35.067Z,19.94
2022-08-07T20:04:46.286Z,19.81
2022-08-07T20:06:53.822Z,19.77
2022-08-07T20:08:58.642Z,19.74
2022-08-07T20:11:03.791Z,19.71
2022-08-07T20:13:23.456Z,19.64
2022-08-07T20:15:32.723Z,19.62
2022-08-07T20:17:38.781Z,19.56
2022-08-07T20:19:48.117Z,19.52
2022-08-07T20:22:01.423Z,19.47
2022-08-07T20:24:12.133Z,19.49
2022-08-07T20:26:20.421Z,19.49
2022-08-07T20:28:37.619Z,19.66
2022-08-07T20:30:46.754Z,19.61
2022-08-07T20:32:50.285Z,19.54
2022-08-07T20:34:57.371Z,19.52
2022-08-07T20:37:00.384Z,19.41
2022-08-07T20:39:30.574Z,19.48
2022-08-07T20:41:28.728Z,19.42
2022-08-07T20:43:47.353Z,19.36
2022-08-07T20:46:28.154Z,19.36
2022-08-07T20:48:28.607Z,19.30
2022-08-07T20:50:33.683Z,19.31
2022-08-07T20:52:51.848Z,19.26
2022-08-07T20:54:55.692Z,19.28
2022-08-07T20:57:00.803Z,19.22
2022-08-07T20:59:05.304Z,19.23
2022-08-07T21:01:19.597Z,19.25
2022-08-07T21:03:25.892Z,19.24
2022-08-07T21:05:50.882Z,19.21
2022-08-07T21:07:57.855Z,19.15
2022-08-07T21:10:03.005Z,19.18
2022-08-07T21:12:08.287Z,19.12
2022-08-07T21:14:34.171Z,19.16
2022-08-07T21:16:56.285Z,19.03
2022-08-07T21:19:02.561Z,19.02
2022-08-07T21:21:05.629Z,19.07
2022-08-07T21:23:18.261Z,19.08
2022-08-07T21:25:30.596Z,19.02
2022-08-07T21:28:01.684Z,18.96
2022-08-07T21:30:06.162Z,18.86
2022-08-07T21:32:47.679Z,18.81
2022-08-07T21:34:46.064Z,18.66
2022-08-07T21:36:56.060Z,18.64
2022-08-07T21:39:47.952Z,18.63
2022-08-07T21:42:00.768Z,18.58
2022-08-07T21:44:14.649Z,18.50
2022-08-07T21:46:35.624Z,18.53
2022-08-07T21:48:55.918Z,18.53
2022-08-07T21:51:06.734Z,18.67
2022-08-07T21:53:12.557Z,18.64
2022-08-07T21:55:28.242Z,18.56
2022-08-07T21:57:57.755Z,18.55
2022-08-07T22:00:07.218Z,18.62
2022-08-07T22:02:14.543Z,18.72
2022-08-07T22:04:24.882Z,18.65
2022-08-07T22:06:31.476Z,18.78
2022-08-07T22:08:42.041Z,18.76
2022-08-07T22:10:48.011Z,18.80
2022-08-07T22:12:53.610Z,18.76
2022-08-07T22:16:43.194Z,18.77
2022-08-07T22:17:35.869Z,18.68
2022-08-07T22:19:45.437Z,18.77
2022-08-07T22:22:02.754Z,18.72
2022-08-07T22:24:16.134Z,18.65
2022-08-07T22:26:23.020Z,18.56
2022-08-07T22:28:31.180Z,18.52
2022-08-07T22:30:53.086Z,18.55
2022-08-07T22:33:05.084Z,18.57
2022-08-07T22:35:07.847Z,18.47
2022-08-07T22:37:18.893Z,18.39
2022-08-07T22:39:23.781Z,18.38
2022-08-07T22:42:02.422Z,18.52
2022-08-07T22:44:01.579Z,18.36
2022-08-07T22:47:02.191Z,18.46
2022-08-07T22:49:07.895Z,18.37
2022-08-07T22:52:00.687Z,18.34
2022-08-07T22:54:26.195Z,18.35
2022-08-07T22:56:39.495Z,18.30
2022-08-07T22:59:09.617Z,18.26
2022-08-07T23:01:26.617Z,18.26
2022-08-07T23:03:58.942Z,18.21
2022-08-07T23:06:18.125Z,18.19
2022-08-07T23:10:01.003Z,18.14
2022-08-07T23:11:41.224Z,18.04
2022-08-07T23:14:15.386Z,18.08
2022-08-07T23:16:44.402Z,18.05
2022-08-07T23:18:57.457Z,18.04
2022-08-07T23:21:16.286Z,17.95
2022-08-07T23:24:05.011Z,17.90
2022-08-07T23:26:18.277Z,17.85
2022-08-07T23:28:44.292Z,17.88
2022-08-07T23:31:13.850Z,17.86
2022-08-07T23:34:35.850Z,17.78
2022-08-07T23:36:10.695Z,17.79
2022-08-07T23:38:37.009Z,17.67
2022-08-07T23:40:50.963Z,17.69
2022-08-07T23:43:16.922Z,17.60
2022-08-07T23:46:02.259Z,17.62
2022-08-07T23:48:04.390Z,17.64
2022-08-07T23:50:33.561Z,17.63
2022-08-07T23:53:06.124Z,17.59
2022-08-07T23:55:52.353Z,17.57
2022-08-07T23:57:43.855Z,17.53
